Aérodrome :
LOGIN :

S'inscrire | Disclaimer

   EN    FR    IT 

 










Légende :    VFR   VFR Marginal   IFR   IFR Intensif   IFR Très Intensif
Visi : 
Plafond : 
>= 8 km
>= 3000ft
5 à 8 km
1000 à 3000 ft
1500m à 5 km
500 à 1000 ft
800 à 1500m
200 à 500 ft
< 800m
< 200 ft
Symboles :   Orages  Brouillard  Fortes neiges  Fortes précipitations  Vent > 20 kt
SIGMETs :   Divers  Orages  Givrage  Turbulence  Onde Orograph.  Cendres Volcan.







- Altitude de l'aérodrome : 75 ft
- Code IATA : YEO


EGDY - RNAS Yeovilton

DERNIER METAR :
  • 181450Z 16018KT 5000 -RA FEW007 BKN012 OVC025 09/08 Q1001 GRN

METARs EXPIRÉS :
  • 181350Z 16018G29KT 5000 RA FEW007 SCT010 OVC025 09/08 Q1002 GRN
  • 181250Z 16018KT 5000 RA FEW007 SCT010 OVC025 09/08 Q1003 GRN

TAF TAF EGDY
Valide du 18 à 15h jusqu'au 19 à 00h UTC


181349Z 1815/1824 16020G30KT 9999 FEW012 BKN020
TEMPO 1815/1818 4000 RA SCT010 OVC015
PROB30
TEMPO 1815/1818 3000 +RA SCT006 OVC015
BECMG 1817/1819 27010KT SCT020
PROB40
TEMPO 1818/1824 6000 SHRA SCT012 BKN015CB
Pas de NOTAMs connus pour ce terrain.
3 SIGMETs publiés pour la FIR London (EGTT) :
 
Onde orographique forte
EGTT SIGMET 08 VALID 181500/181900 EGRR
EGTT LONDON FIR SEV MTW FCST WI N5220 W00530 - N5500 W00530 - N5500 W00015 - N5024 W00255 - N4959 W00548 - N5220 W00530 FL030/250 STNR WKN=
Turbulence forte
EGTT SIGMET 06 VALID 181100/181500 EGRR
EGTT LONDON FIR SEV TURB FCST WI N5000 W00200 - N4919 W00530 - N5500 W00530 - N5500 E00100 - N5000 W00017 - N5000 W00200 SFC/FL060 MOV E 10KT WKN=
Onde orographique forte
EGTT SIGMET 05 VALID 181100/181500 EGRR
EGTT LONDON FIR SEV MTW FCST WI N5220 W00530 - N5500 W00530 - N5500 W00015 - N5024 W00255 - N4959 W00548 - N5220 W00530 - N5220 W00530 FL030/250 STNR NC=



MET'MAP, la Météo Aéronautique d'un coup d'oeil ! - Copyright ORBIFLY Décembre 2007 - Disclaimer

ORBIFLY MET'MAP TEAM :

Programmation & Développement : Alexandra Zaïnal
Conception & Développement : Baudouin d'Aumeries
Co-Programmation & Développement : Marc-Olivier Méhu
Soutien technique & logistique : Manuel Goepfert

Contact : metmap@orbifly.com




SOURCES & CREDITS :

   NOAA